sensor_id;sensor_type;location;lat;lon;timestamp;P1;durP1;ratioP1;P2;durP2;ratioP2
26082;SDS011;13848;49.018;12.078;2022-10-16T00:00:57;8.38;;;5.25;;
26082;SDS011;13848;49.018;12.078;2022-10-16T00:03:23;9.75;;;5.35;;
26082;SDS011;13848;49.018;12.078;2022-10-16T00:05:49;9.73;;;5.65;;
26082;SDS011;13848;49.018;12.078;2022-10-16T00:08:15;10.10;;;6.35;;
26082;SDS011;13848;49.018;12.078;2022-10-16T00:10:41;9.48;;;7.13;;
26082;SDS011;13848;49.018;12.078;2022-10-16T00:13:08;7.30;;;5.15;;
26082;SDS011;13848;49.018;12.078;2022-10-16T00:15:34;9.30;;;6.13;;
26082;SDS011;13848;49.018;12.078;2022-10-16T00:18:01;5.70;;;4.20;;
26082;SDS011;13848;49.018;12.078;2022-10-16T00:20:28;6.50;;;4.55;;
26082;SDS011;13848;49.018;12.078;2022-10-16T00:22:54;6.72;;;4.50;;
26082;SDS011;13848;49.018;12.078;2022-10-16T00:25:19;6.82;;;4.93;;
26082;SDS011;13848;49.018;12.078;2022-10-16T00:27:45;7.85;;;4.97;;
26082;SDS011;13848;49.018;12.078;2022-10-16T00:30:13;6.85;;;4.55;;
26082;SDS011;13848;49.018;12.078;2022-10-16T00:32:39;6.93;;;4.90;;
26082;SDS011;13848;49.018;12.078;2022-10-16T00:35:05;7.45;;;5.10;;
26082;SDS011;13848;49.018;12.078;2022-10-16T00:37:31;8.05;;;4.70;;
26082;SDS011;13848;49.018;12.078;2022-10-16T00:39:57;5.70;;;4.80;;
26082;SDS011;13848;49.018;12.078;2022-10-16T00:42:23;6.97;;;4.88;;
26082;SDS011;13848;49.018;12.078;2022-10-16T00:44:50;6.00;;;4.68;;
26082;SDS011;13848;49.018;12.078;2022-10-16T00:47:21;6.93;;;5.63;;
26082;SDS011;13848;49.018;12.078;2022-10-16T00:49:53;5.93;;;4.65;;
26082;SDS011;13848;49.018;12.078;2022-10-16T00:52:24;7.88;;;5.88;;
26082;SDS011;13848;49.018;12.078;2022-10-16T00:54:50;10.20;;;5.50;;
26082;SDS011;13848;49.018;12.078;2022-10-16T00:57:18;7.55;;;5.45;;
26082;SDS011;13848;49.018;12.078;2022-10-16T00:59:45;7.70;;;5.50;;
26082;SDS011;13848;49.018;12.078;2022-10-16T01:02:12;8.07;;;5.93;;
26082;SDS011;13848;49.018;12.078;2022-10-16T01:04:42;8.98;;;5.82;;
26082;SDS011;13848;49.018;12.078;2022-10-16T01:07:11;6.90;;;5.68;;
26082;SDS011;13848;49.018;12.078;2022-10-16T01:09:46;11.35;;;6.10;;
26082;SDS011;13848;49.018;12.078;2022-10-16T01:12:21;11.27;;;5.70;;
26082;SDS011;13848;49.018;12.078;2022-10-16T01:14:56;6.38;;;5.32;;
26082;SDS011;13848;49.018;12.078;2022-10-16T01:17:28;12.15;;;5.50;;
26082;SDS011;13848;49.018;12.078;2022-10-16T01:20:03;10.40;;;5.85;;
26082;SDS011;13848;49.018;12.078;2022-10-16T01:22:38;10.57;;;6.20;;
26082;SDS011;13848;49.018;12.078;2022-10-16T01:25:11;7.05;;;5.32;;
26082;SDS011;13848;49.018;12.078;2022-10-16T01:27:49;10.63;;;6.05;;
26082;SDS011;13848;49.018;12.078;2022-10-16T01:30:17;7.13;;;5.05;;
26082;SDS011;13848;49.018;12.078;2022-10-16T01:32:48;10.45;;;5.32;;
26082;SDS011;13848;49.018;12.078;2022-10-16T01:35:19;9.63;;;6.13;;
26082;SDS011;13848;49.018;12.078;2022-10-16T01:37:50;8.07;;;4.85;;
26082;SDS011;13848;49.018;12.078;2022-10-16T01:40:20;7.47;;;4.80;;
26082;SDS011;13848;49.018;12.078;2022-10-16T01:42:52;7.40;;;4.93;;
26082;SDS011;13848;49.018;12.078;2022-10-16T01:45:22;6.70;;;4.20;;
26082;SDS011;13848;49.018;12.078;2022-10-16T01:47:48;5.80;;;4.82;;
26082;SDS011;13848;49.018;12.078;2022-10-16T01:50:16;9.65;;;5.40;;
26082;SDS011;13848;49.018;12.078;2022-10-16T01:52:45;8.63;;;5.18;;
26082;SDS011;13848;49.018;12.078;2022-10-16T01:55:16;7.53;;;5.50;;
26082;SDS011;13848;49.018;12.078;2022-10-16T01:57:48;9.05;;;5.88;;
26082;SDS011;13848;49.018;12.078;2022-10-16T02:00:19;7.15;;;4.65;;
26082;SDS011;13848;49.018;12.078;2022-10-16T02:02:47;5.10;;;4.28;;
26082;SDS011;13848;49.018;12.078;2022-10-16T02:05:18;12.50;;;5.60;;
26082;SDS011;13848;49.018;12.078;2022-10-16T02:07:49;8.43;;;5.20;;
26082;SDS011;13848;49.018;12.078;2022-10-16T02:10:16;7.90;;;5.28;;
26082;SDS011;13848;49.018;12.078;2022-10-16T02:12:44;8.05;;;5.25;;
26082;SDS011;13848;49.018;12.078;2022-10-16T02:15:16;7.75;;;4.35;;
26082;SDS011;13848;49.018;12.078;2022-10-16T02:17:42;10.20;;;6.15;;
26082;SDS011;13848;49.018;12.078;2022-10-16T02:20:08;5.55;;;4.15;;
26082;SDS011;13848;49.018;12.078;2022-10-16T02:22:35;9.10;;;5.97;;
26082;SDS011;13848;49.018;12.078;2022-10-16T02:25:05;6.78;;;4.72;;
26082;SDS011;13848;49.018;12.078;2022-10-16T02:27:34;7.93;;;4.45;;
26082;SDS011;13848;49.018;12.078;2022-10-16T02:30:06;5.43;;;4.00;;
26082;SDS011;13848;49.018;12.078;2022-10-16T02:32:39;5.38;;;4.05;;
26082;SDS011;13848;49.018;12.078;2022-10-16T02:35:08;6.30;;;3.93;;
26082;SDS011;13848;49.018;12.078;2022-10-16T02:37:34;5.43;;;4.43;;
26082;SDS011;13848;49.018;12.078;2022-10-16T02:40:03;10.10;;;5.80;;
26082;SDS011;13848;49.018;12.078;2022-10-16T02:42:32;7.18;;;4.55;;
26082;SDS011;13848;49.018;12.078;2022-10-16T02:44:59;6.38;;;4.25;;
26082;SDS011;13848;49.018;12.078;2022-10-16T02:47:25;9.40;;;4.72;;
26082;SDS011;13848;49.018;12.078;2022-10-16T02:49:52;10.98;;;5.55;;
26082;SDS011;13848;49.018;12.078;2022-10-16T02:52:18;7.65;;;5.30;;
26082;SDS011;13848;49.018;12.078;2022-10-16T02:54:44;7.40;;;4.20;;
26082;SDS011;13848;49.018;12.078;2022-10-16T02:57:10;6.38;;;4.90;;
26082;SDS011;13848;49.018;12.078;2022-10-16T02:59:36;6.40;;;4.63;;
26082;SDS011;13848;49.018;12.078;2022-10-16T03:02:02;8.57;;;4.65;;
26082;SDS011;13848;49.018;12.078;2022-10-16T03:04:28;5.32;;;4.18;;
26082;SDS011;13848;49.018;12.078;2022-10-16T03:06:56;11.80;;;5.80;;
26082;SDS011;13848;49.018;12.078;2022-10-16T03:09:22;7.82;;;4.70;;
26082;SDS011;13848;49.018;12.078;2022-10-16T03:11:48;9.13;;;4.82;;
26082;SDS011;13848;49.018;12.078;2022-10-16T03:14:14;6.90;;;5.10;;
26082;SDS011;13848;49.018;12.078;2022-10-16T03:16:40;6.70;;;5.22;;
26082;SDS011;13848;49.018;12.078;2022-10-16T03:19:05;7.38;;;5.18;;
26082;SDS011;13848;49.018;12.078;2022-10-16T03:21:31;9.10;;;5.15;;
26082;SDS011;13848;49.018;12.078;2022-10-16T03:23:59;5.68;;;4.57;;
26082;SDS011;13848;49.018;12.078;2022-10-16T03:26:25;6.13;;;4.78;;
26082;SDS011;13848;49.018;12.078;2022-10-16T03:28:51;7.28;;;5.03;;
26082;SDS011;13848;49.018;12.078;2022-10-16T03:31:17;7.70;;;5.35;;
26082;SDS011;13848;49.018;12.078;2022-10-16T03:33:43;6.60;;;4.75;;
26082;SDS011;13848;49.018;12.078;2022-10-16T03:36:09;7.05;;;5.22;;
26082;SDS011;13848;49.018;12.078;2022-10-16T03:38:35;8.27;;;4.80;;
26082;SDS011;13848;49.018;12.078;2022-10-16T03:41:02;5.85;;;4.57;;
26082;SDS011;13848;49.018;12.078;2022-10-16T03:43:28;8.98;;;5.57;;
26082;SDS011;13848;49.018;12.078;2022-10-16T03:45:54;7.05;;;4.80;;
26082;SDS011;13848;49.018;12.078;2022-10-16T03:48:20;6.72;;;4.55;;
26082;SDS011;13848;49.018;12.078;2022-10-16T03:50:46;7.50;;;4.78;;
26082;SDS011;13848;49.018;12.078;2022-10-16T03:53:12;7.18;;;5.18;;
26082;SDS011;13848;49.018;12.078;2022-10-16T03:55:38;8.73;;;4.63;;
26082;SDS011;13848;49.018;12.078;2022-10-16T03:58:07;6.10;;;4.20;;
26082;SDS011;13848;49.018;12.078;2022-10-16T04:00:33;6.93;;;4.63;;
26082;SDS011;13848;49.018;12.078;2022-10-16T04:02:59;7.78;;;4.00;;
26082;SDS011;13848;49.018;12.078;2022-10-16T04:05:25;6.03;;;4.57;;
26082;SDS011;13848;49.018;12.078;2022-10-16T04:07:51;7.47;;;4.85;;
26082;SDS011;13848;49.018;12.078;2022-10-16T04:10:17;9.00;;;5.30;;
26082;SDS011;13848;49.018;12.078;2022-10-16T04:12:44;7.03;;;5.40;;
26082;SDS011;13848;49.018;12.078;2022-10-16T04:15:11;7.10;;;5.00;;
26082;SDS011;13848;49.018;12.078;2022-10-16T04:17:37;5.68;;;4.53;;
26082;SDS011;13848;49.018;12.078;2022-10-16T04:20:04;8.00;;;4.45;;
26082;SDS011;13848;49.018;12.078;2022-10-16T04:22:30;5.57;;;4.18;;
26082;SDS011;13848;49.018;12.078;2022-10-16T04:24:56;5.63;;;4.47;;
26082;SDS011;13848;49.018;12.078;2022-10-16T04:27:22;4.93;;;4.03;;
26082;SDS011;13848;49.018;12.078;2022-10-16T04:29:48;4.93;;;4.43;;
26082;SDS011;13848;49.018;12.078;2022-10-16T04:32:15;4.68;;;4.28;;
26082;SDS011;13848;49.018;12.078;2022-10-16T04:34:41;6.90;;;4.85;;
26082;SDS011;13848;49.018;12.078;2022-10-16T04:37:07;5.13;;;4.60;;
26082;SDS011;13848;49.018;12.078;2022-10-16T04:39:33;7.13;;;4.53;;
26082;SDS011;13848;49.018;12.078;2022-10-16T04:41:59;15.10;;;4.72;;
26082;SDS011;13848;49.018;12.078;2022-10-16T04:44:25;6.18;;;4.85;;
26082;SDS011;13848;49.018;12.078;2022-10-16T04:46:51;7.70;;;4.93;;
26082;SDS011;13848;49.018;12.078;2022-10-16T04:49:18;4.45;;;4.05;;
26082;SDS011;13848;49.018;12.078;2022-10-16T04:51:44;8.20;;;5.22;;
26082;SDS011;13848;49.018;12.078;2022-10-16T04:54:10;5.32;;;4.72;;
26082;SDS011;13848;49.018;12.078;2022-10-16T04:56:36;6.20;;;4.82;;
26082;SDS011;13848;49.018;12.078;2022-10-16T04:59:02;6.93;;;5.22;;
26082;SDS011;13848;49.018;12.078;2022-10-16T05:01:28;9.07;;;4.93;;
26082;SDS011;13848;49.018;12.078;2022-10-16T05:03:54;8.80;;;5.00;;
26082;SDS011;13848;49.018;12.078;2022-10-16T05:06:22;5.05;;;4.50;;
26082;SDS011;13848;49.018;12.078;2022-10-16T05:08:48;8.82;;;5.18;;
26082;SDS011;13848;49.018;12.078;2022-10-16T05:11:14;5.93;;;4.88;;
26082;SDS011;13848;49.018;12.078;2022-10-16T05:13:40;6.35;;;5.30;;
26082;SDS011;13848;49.018;12.078;2022-10-16T05:16:06;6.65;;;5.20;;
26082;SDS011;13848;49.018;12.078;2022-10-16T05:18:32;7.32;;;4.97;;
26082;SDS011;13848;49.018;12.078;2022-10-16T05:20:58;7.70;;;5.63;;
26082;SDS011;13848;49.018;12.078;2022-10-16T05:23:25;10.18;;;5.30;;
26082;SDS011;13848;49.018;12.078;2022-10-16T05:25:52;6.30;;;5.03;;
26082;SDS011;13848;49.018;12.078;2022-10-16T05:28:18;7.43;;;5.10;;
26082;SDS011;13848;49.018;12.078;2022-10-16T05:30:44;9.20;;;5.00;;
26082;SDS011;13848;49.018;12.078;2022-10-16T05:33:10;10.85;;;5.07;;
26082;SDS011;13848;49.018;12.078;2022-10-16T05:35:36;8.10;;;5.22;;
26082;SDS011;13848;49.018;12.078;2022-10-16T05:38:02;8.55;;;5.10;;
26082;SDS011;13848;49.018;12.078;2022-10-16T05:40:29;7.82;;;4.97;;
26082;SDS011;13848;49.018;12.078;2022-10-16T05:42:55;6.97;;;5.00;;
26082;SDS011;13848;49.018;12.078;2022-10-16T05:45:21;7.32;;;4.88;;
26082;SDS011;13848;49.018;12.078;2022-10-16T05:47:47;6.10;;;5.15;;
26082;SDS011;13848;49.018;12.078;2022-10-16T05:50:13;6.38;;;5.70;;
26082;SDS011;13848;49.018;12.078;2022-10-16T05:52:39;6.97;;;5.20;;
26082;SDS011;13848;49.018;12.078;2022-10-16T05:55:06;5.80;;;5.20;;
26082;SDS011;13848;49.018;12.078;2022-10-16T05:57:34;7.43;;;5.22;;
26082;SDS011;13848;49.018;12.078;2022-10-16T05:59:59;7.28;;;4.82;;
26082;SDS011;13848;49.018;12.078;2022-10-16T06:02:26;5.78;;;4.88;;
26082;SDS011;13848;49.018;12.078;2022-10-16T06:04:52;5.38;;;4.82;;
26082;SDS011;13848;49.018;12.078;2022-10-16T06:07:18;11.50;;;5.85;;
26082;SDS011;13848;49.018;12.078;2022-10-16T06:09:44;7.78;;;5.30;;
26082;SDS011;13848;49.018;12.078;2022-10-16T06:12:13;5.72;;;4.95;;
26082;SDS011;13848;49.018;12.078;2022-10-16T06:14:40;11.55;;;6.80;;
26082;SDS011;13848;49.018;12.078;2022-10-16T06:17:06;5.55;;;4.82;;
26082;SDS011;13848;49.018;12.078;2022-10-16T06:19:32;5.20;;;4.55;;
26082;SDS011;13848;49.018;12.078;2022-10-16T06:21:58;6.32;;;4.43;;
26082;SDS011;13848;49.018;12.078;2022-10-16T06:24:24;6.80;;;5.43;;
26082;SDS011;13848;49.018;12.078;2022-10-16T06:26:50;7.00;;;5.47;;
26082;SDS011;13848;49.018;12.078;2022-10-16T06:29:16;6.88;;;4.68;;
26082;SDS011;13848;49.018;12.078;2022-10-16T06:31:43;6.05;;;4.70;;
26082;SDS011;13848;49.018;12.078;2022-10-16T06:34:09;10.25;;;4.95;;
26082;SDS011;13848;49.018;12.078;2022-10-16T06:36:36;7.95;;;5.50;;
26082;SDS011;13848;49.018;12.078;2022-10-16T06:39:03;8.18;;;4.95;;
26082;SDS011;13848;49.018;12.078;2022-10-16T06:41:29;5.25;;;4.43;;
26082;SDS011;13848;49.018;12.078;2022-10-16T06:43:54;8.45;;;5.53;;
26082;SDS011;13848;49.018;12.078;2022-10-16T06:46:21;6.10;;;4.97;;
26082;SDS011;13848;49.018;12.078;2022-10-16T06:48:51;7.78;;;4.68;;
26082;SDS011;13848;49.018;12.078;2022-10-16T06:51:18;6.53;;;5.35;;
26082;SDS011;13848;49.018;12.078;2022-10-16T06:53:46;6.72;;;4.80;;
26082;SDS011;13848;49.018;12.078;2022-10-16T06:56:14;5.20;;;4.55;;
26082;SDS011;13848;49.018;12.078;2022-10-16T06:58:41;6.65;;;5.30;;
26082;SDS011;13848;49.018;12.078;2022-10-16T07:01:08;8.13;;;5.05;;
26082;SDS011;13848;49.018;12.078;2022-10-16T07:03:35;8.00;;;5.45;;
26082;SDS011;13848;49.018;12.078;2022-10-16T07:06:03;6.65;;;4.97;;
26082;SDS011;13848;49.018;12.078;2022-10-16T07:08:31;8.02;;;5.20;;
26082;SDS011;13848;49.018;12.078;2022-10-16T07:11:00;6.22;;;5.00;;
26082;SDS011;13848;49.018;12.078;2022-10-16T07:13:26;8.50;;;5.35;;
26082;SDS011;13848;49.018;12.078;2022-10-16T07:15:53;11.15;;;5.50;;
26082;SDS011;13848;49.018;12.078;2022-10-16T07:18:19;12.00;;;5.38;;
26082;SDS011;13848;49.018;12.078;2022-10-16T07:20:45;8.48;;;5.38;;
26082;SDS011;13848;49.018;12.078;2022-10-16T07:23:12;8.45;;;5.18;;
26082;SDS011;13848;49.018;12.078;2022-10-16T07:25:38;5.95;;;4.57;;
26082;SDS011;13848;49.018;12.078;2022-10-16T07:28:04;6.93;;;4.75;;
26082;SDS011;13848;49.018;12.078;2022-10-16T07:30:30;7.78;;;4.97;;
26082;SDS011;13848;49.018;12.078;2022-10-16T07:32:56;7.72;;;4.60;;
26082;SDS011;13848;49.018;12.078;2022-10-16T07:35:22;5.45;;;4.30;;
26082;SDS011;13848;49.018;12.078;2022-10-16T07:37:48;10.05;;;4.43;;
26082;SDS011;13848;49.018;12.078;2022-10-16T07:40:15;5.18;;;4.38;;
26082;SDS011;13848;49.018;12.078;2022-10-16T07:42:41;7.45;;;4.75;;
26082;SDS011;13848;49.018;12.078;2022-10-16T07:45:08;7.13;;;4.25;;
26082;SDS011;13848;49.018;12.078;2022-10-16T07:47:34;8.00;;;4.05;;
26082;SDS011;13848;49.018;12.078;2022-10-16T07:50:00;5.80;;;3.90;;
26082;SDS011;13848;49.018;12.078;2022-10-16T07:52:26;5.88;;;3.92;;
26082;SDS011;13848;49.018;12.078;2022-10-16T07:54:52;4.63;;;3.60;;
26082;SDS011;13848;49.018;12.078;2022-10-16T07:57:19;6.10;;;4.35;;
26082;SDS011;13848;49.018;12.078;2022-10-16T07:59:45;6.90;;;3.95;;
26082;SDS011;13848;49.018;12.078;2022-10-16T08:02:11;6.32;;;3.67;;
26082;SDS011;13848;49.018;12.078;2022-10-16T08:04:37;3.28;;;2.97;;
26082;SDS011;13848;49.018;12.078;2022-10-16T08:07:03;4.57;;;3.30;;
26082;SDS011;13848;49.018;12.078;2022-10-16T08:09:29;7.15;;;4.63;;
26082;SDS011;13848;49.018;12.078;2022-10-16T08:11:55;4.13;;;3.00;;
26082;SDS011;13848;49.018;12.078;2022-10-16T08:14:22;3.25;;;2.67;;
26082;SDS011;13848;49.018;12.078;2022-10-16T08:16:48;3.42;;;2.50;;
26082;SDS011;13848;49.018;12.078;2022-10-16T08:19:14;3.35;;;2.30;;
26082;SDS011;13848;49.018;12.078;2022-10-16T08:21:40;4.72;;;2.85;;
26082;SDS011;13848;49.018;12.078;2022-10-16T08:24:06;3.08;;;2.53;;
26082;SDS011;13848;49.018;12.078;2022-10-16T08:26:32;2.35;;;2.13;;
26082;SDS011;13848;49.018;12.078;2022-10-16T08:28:58;3.70;;;2.35;;
26082;SDS011;13848;49.018;12.078;2022-10-16T08:31:28;4.65;;;2.30;;
26082;SDS011;13848;49.018;12.078;2022-10-16T08:33:54;2.80;;;2.00;;
26082;SDS011;13848;49.018;12.078;2022-10-16T08:36:20;2.63;;;2.15;;
26082;SDS011;13848;49.018;12.078;2022-10-16T08:38:47;3.08;;;2.35;;
26082;SDS011;13848;49.018;12.078;2022-10-16T08:41:27;4.28;;;2.03;;
26082;SDS011;13848;49.018;12.078;2022-10-16T08:44:22;2.53;;;2.10;;
26082;SDS011;13848;49.018;12.078;2022-10-16T08:46:58;2.72;;;2.20;;
26082;SDS011;13848;49.018;12.078;2022-10-16T08:49:32;2.80;;;2.17;;
26082;SDS011;13848;49.018;12.078;2022-10-16T08:51:59;6.30;;;2.30;;
26082;SDS011;13848;49.018;12.078;2022-10-16T08:54:27;2.80;;;2.00;;
26082;SDS011;13848;49.018;12.078;2022-10-16T08:56:55;3.72;;;2.08;;
26082;SDS011;13848;49.018;12.078;2022-10-16T08:59:21;3.40;;;1.90;;
26082;SDS011;13848;49.018;12.078;2022-10-16T09:01:49;2.13;;;1.90;;
26082;SDS011;13848;49.018;12.078;2022-10-16T09:07:15;2.80;;;2.28;;
26082;SDS011;13848;49.018;12.078;2022-10-16T09:09:56;3.53;;;2.13;;
26082;SDS011;13848;49.018;12.078;2022-10-16T09:12:31;3.83;;;2.33;;
26082;SDS011;13848;49.018;12.078;2022-10-16T09:15:05;2.85;;;2.20;;
26082;SDS011;13848;49.018;12.078;2022-10-16T09:17:41;2.95;;;1.98;;
26082;SDS011;13848;49.018;12.078;2022-10-16T09:20:22;5.22;;;1.92;;
26082;SDS011;13848;49.018;12.078;2022-10-16T09:22:55;4.28;;;2.05;;
26082;SDS011;13848;49.018;12.078;2022-10-16T09:25:35;4.30;;;2.03;;
26082;SDS011;13848;49.018;12.078;2022-10-16T09:28:05;3.10;;;1.88;;
26082;SDS011;13848;49.018;12.078;2022-10-16T09:30:33;17.33;;;8.77;;
26082;SDS011;13848;49.018;12.078;2022-10-16T09:32:59;3.55;;;2.17;;
26082;SDS011;13848;49.018;12.078;2022-10-16T09:35:31;2.92;;;2.30;;
26082;SDS011;13848;49.018;12.078;2022-10-16T09:38:00;3.08;;;2.00;;
26082;SDS011;13848;49.018;12.078;2022-10-16T09:40:27;4.30;;;2.20;;
26082;SDS011;13848;49.018;12.078;2022-10-16T09:42:58;2.85;;;2.33;;
26082;SDS011;13848;49.018;12.078;2022-10-16T09:45:31;2.60;;;2.22;;
26082;SDS011;13848;49.018;12.078;2022-10-16T09:47:58;2.10;;;1.90;;
26082;SDS011;13848;49.018;12.078;2022-10-16T09:50:36;2.35;;;2.10;;
26082;SDS011;13848;49.018;12.078;2022-10-16T09:53:06;2.85;;;2.10;;
26082;SDS011;13848;49.018;12.078;2022-10-16T09:55:47;2.40;;;1.95;;
26082;SDS011;13848;49.018;12.078;2022-10-16T09:58:13;2.42;;;2.05;;
26082;SDS011;13848;49.018;12.078;2022-10-16T10:00:39;4.40;;;2.03;;
26082;SDS011;13848;49.018;12.078;2022-10-16T10:03:09;4.85;;;2.20;;
26082;SDS011;13848;49.018;12.078;2022-10-16T10:05:37;4.38;;;1.85;;
26082;SDS011;13848;49.018;12.078;2022-10-16T10:08:05;3.40;;;2.22;;
26082;SDS011;13848;49.018;12.078;2022-10-16T10:10:32;4.32;;;2.00;;
26082;SDS011;13848;49.018;12.078;2022-10-16T10:12:59;4.78;;;2.00;;
26082;SDS011;13848;49.018;12.078;2022-10-16T10:15:27;3.78;;;1.90;;
26082;SDS011;13848;49.018;12.078;2022-10-16T10:17:58;3.33;;;2.40;;
26082;SDS011;13848;49.018;12.078;2022-10-16T10:20:25;3.80;;;2.42;;
26082;SDS011;13848;49.018;12.078;2022-10-16T10:22:54;4.00;;;1.92;;
26082;SDS011;13848;49.018;12.078;2022-10-16T10:25:26;3.42;;;1.85;;
26082;SDS011;13848;49.018;12.078;2022-10-16T10:28:07;3.10;;;2.00;;
26082;SDS011;13848;49.018;12.078;2022-10-16T10:30:51;2.47;;;1.90;;
26082;SDS011;13848;49.018;12.078;2022-10-16T10:33:28;2.22;;;1.50;;
26082;SDS011;13848;49.018;12.078;2022-10-16T10:36:05;3.05;;;1.58;;
26082;SDS011;13848;49.018;12.078;2022-10-16T10:38:44;2.20;;;1.70;;
26082;SDS011;13848;49.018;12.078;2022-10-16T10:41:25;2.22;;;1.75;;
26082;SDS011;13848;49.018;12.078;2022-10-16T10:44:04;4.72;;;1.85;;
26082;SDS011;13848;49.018;12.078;2022-10-16T10:46:41;2.42;;;1.75;;
26082;SDS011;13848;49.018;12.078;2022-10-16T10:49:14;2.70;;;1.83;;
26082;SDS011;13848;49.018;12.078;2022-10-16T10:51:53;2.50;;;1.93;;
26082;SDS011;13848;49.018;12.078;2022-10-16T10:54:30;2.92;;;2.05;;
26082;SDS011;13848;49.018;12.078;2022-10-16T10:57:06;3.28;;;1.80;;
26082;SDS011;13848;49.018;12.078;2022-10-16T10:59:47;2.28;;;1.80;;
26082;SDS011;13848;49.018;12.078;2022-10-16T11:02:24;2.90;;;1.80;;
26082;SDS011;13848;49.018;12.078;2022-10-16T11:05:12;18.13;;;8.30;;
26082;SDS011;13848;49.018;12.078;2022-10-16T11:07:49;5.03;;;1.83;;
26082;SDS011;13848;49.018;12.078;2022-10-16T11:10:21;4.03;;;2.10;;
26082;SDS011;13848;49.018;12.078;2022-10-16T11:12:50;2.30;;;1.90;;
26082;SDS011;13848;49.018;12.078;2022-10-16T11:15:21;2.10;;;1.90;;
26082;SDS011;13848;49.018;12.078;2022-10-16T11:17:53;3.95;;;1.70;;
26082;SDS011;13848;49.018;12.078;2022-10-16T11:20:24;2.40;;;1.80;;
26082;SDS011;13848;49.018;12.078;2022-10-16T11:22:55;3.72;;;1.90;;
26082;SDS011;13848;49.018;12.078;2022-10-16T11:25:27;3.55;;;1.65;;
26082;SDS011;13848;49.018;12.078;2022-10-16T11:27:56;5.28;;;2.40;;
26082;SDS011;13848;49.018;12.078;2022-10-16T11:30:27;3.05;;;1.58;;
26082;SDS011;13848;49.018;12.078;2022-10-16T11:33:03;2.42;;;1.58;;
26082;SDS011;13848;49.018;12.078;2022-10-16T11:35:48;5.47;;;1.58;;
26082;SDS011;13848;49.018;12.078;2022-10-16T11:38:23;2.47;;;1.85;;
26082;SDS011;13848;49.018;12.078;2022-10-16T11:40:55;2.00;;;1.80;;
26082;SDS011;13848;49.018;12.078;2022-10-16T11:43:26;1.85;;;1.60;;
26082;SDS011;13848;49.018;12.078;2022-10-16T11:45:58;3.30;;;1.60;;
26082;SDS011;13848;49.018;12.078;2022-10-16T11:48:30;2.78;;;1.70;;
26082;SDS011;13848;49.018;12.078;2022-10-16T11:51:03;1.63;;;1.50;;
26082;SDS011;13848;49.018;12.078;2022-10-16T11:53:39;4.28;;;1.55;;
26082;SDS011;13848;49.018;12.078;2022-10-16T11:56:13;3.90;;;1.60;;
26082;SDS011;13848;49.018;12.078;2022-10-16T11:58:41;1.58;;;1.45;;
26082;SDS011;13848;49.018;12.078;2022-10-16T12:01:18;2.50;;;1.40;;
26082;SDS011;13848;49.018;12.078;2022-10-16T12:03:55;2.53;;;1.50;;
26082;SDS011;13848;49.018;12.078;2022-10-16T12:06:31;2.10;;;1.30;;
26082;SDS011;13848;49.018;12.078;2022-10-16T12:09:02;2.17;;;1.50;;
26082;SDS011;13848;49.018;12.078;2022-10-16T12:11:35;2.42;;;1.52;;
26082;SDS011;13848;49.018;12.078;2022-10-16T12:14:04;1.38;;;1.23;;
26082;SDS011;13848;49.018;12.078;2022-10-16T12:16:32;2.10;;;1.33;;
26082;SDS011;13848;49.018;12.078;2022-10-16T12:19:12;1.83;;;1.35;;
26082;SDS011;13848;49.018;12.078;2022-10-16T12:21:39;1.50;;;1.40;;
26082;SDS011;13848;49.018;12.078;2022-10-16T12:24:06;2.35;;;1.48;;
26082;SDS011;13848;49.018;12.078;2022-10-16T12:26:48;3.85;;;1.40;;
26082;SDS011;13848;49.018;12.078;2022-10-16T12:29:23;1.30;;;1.10;;
26082;SDS011;13848;49.018;12.078;2022-10-16T12:31:55;1.92;;;1.40;;
26082;SDS011;13848;49.018;12.078;2022-10-16T12:34:22;4.45;;;2.45;;
26082;SDS011;13848;49.018;12.078;2022-10-16T12:36:53;3.33;;;1.48;;
26082;SDS011;13848;49.018;12.078;2022-10-16T12:39:20;5.30;;;1.48;;
26082;SDS011;13848;49.018;12.078;2022-10-16T12:41:59;5.57;;;1.75;;
26082;SDS011;13848;49.018;12.078;2022-10-16T12:44:26;2.50;;;1.38;;
26082;SDS011;13848;49.018;12.078;2022-10-16T12:46:58;5.72;;;1.48;;
26082;SDS011;13848;49.018;12.078;2022-10-16T12:49:29;2.90;;;1.38;;
26082;SDS011;13848;49.018;12.078;2022-10-16T12:51:57;1.67;;;1.58;;
26082;SDS011;13848;49.018;12.078;2022-10-16T12:54:25;4.25;;;1.75;;
26082;SDS011;13848;49.018;12.078;2022-10-16T12:57:07;2.85;;;1.33;;
26082;SDS011;13848;49.018;12.078;2022-10-16T12:59:46;1.67;;;1.58;;
26082;SDS011;13848;49.018;12.078;2022-10-16T13:05:23;2.65;;;1.30;;
26082;SDS011;13848;49.018;12.078;2022-10-16T13:07:56;2.78;;;1.52;;
26082;SDS011;13848;49.018;12.078;2022-10-16T13:10:34;1.67;;;1.50;;
26082;SDS011;13848;49.018;12.078;2022-10-16T13:13:20;1.60;;;1.48;;
26082;SDS011;13848;49.018;12.078;2022-10-16T13:16:13;1.75;;;1.40;;
26082;SDS011;13848;49.018;12.078;2022-10-16T13:18:49;2.90;;;1.40;;
26082;SDS011;13848;49.018;12.078;2022-10-16T13:21:28;2.72;;;1.63;;
26082;SDS011;13848;49.018;12.078;2022-10-16T13:24:07;1.70;;;1.48;;
26082;SDS011;13848;49.018;12.078;2022-10-16T13:26:46;1.90;;;1.42;;
26082;SDS011;13848;49.018;12.078;2022-10-16T13:29:20;1.58;;;1.48;;
26082;SDS011;13848;49.018;12.078;2022-10-16T13:31:46;1.73;;;1.50;;
26082;SDS011;13848;49.018;12.078;2022-10-16T13:34:14;1.40;;;1.30;;
26082;SDS011;13848;49.018;12.078;2022-10-16T13:36:43;5.25;;;2.67;;
26082;SDS011;13848;49.018;12.078;2022-10-16T13:39:12;1.88;;;1.60;;
26082;SDS011;13848;49.018;12.078;2022-10-16T13:41:40;1.42;;;1.30;;
26082;SDS011;13848;49.018;12.078;2022-10-16T13:44:09;3.85;;;1.52;;
26082;SDS011;13848;49.018;12.078;2022-10-16T13:46:41;2.83;;;1.55;;
26082;SDS011;13848;49.018;12.078;2022-10-16T13:49:11;5.30;;;1.33;;
26082;SDS011;13848;49.018;12.078;2022-10-16T13:51:38;1.67;;;1.38;;
26082;SDS011;13848;49.018;12.078;2022-10-16T13:54:07;1.75;;;1.42;;
26082;SDS011;13848;49.018;12.078;2022-10-16T13:56:35;1.95;;;1.58;;
26082;SDS011;13848;49.018;12.078;2022-10-16T13:59:01;2.20;;;1.52;;
26082;SDS011;13848;49.018;12.078;2022-10-16T14:01:29;1.52;;;1.33;;
26082;SDS011;13848;49.018;12.078;2022-10-16T14:04:02;1.50;;;1.33;;
26082;SDS011;13848;49.018;12.078;2022-10-16T14:06:31;2.15;;;1.45;;
26082;SDS011;13848;49.018;12.078;2022-10-16T14:08:59;2.08;;;1.40;;
26082;SDS011;13848;49.018;12.078;2022-10-16T14:11:27;1.65;;;1.27;;
26082;SDS011;13848;49.018;12.078;2022-10-16T14:13:53;3.13;;;1.20;;
26082;SDS011;13848;49.018;12.078;2022-10-16T14:16:21;4.63;;;1.38;;
26082;SDS011;13848;49.018;12.078;2022-10-16T14:18:53;1.70;;;1.40;;
26082;SDS011;13848;49.018;12.078;2022-10-16T14:21:24;3.20;;;1.30;;
26082;SDS011;13848;49.018;12.078;2022-10-16T14:23:50;2.13;;;1.20;;
26082;SDS011;13848;49.018;12.078;2022-10-16T14:26:17;4.72;;;2.00;;
26082;SDS011;13848;49.018;12.078;2022-10-16T14:28:45;2.38;;;1.60;;
26082;SDS011;13848;49.018;12.078;2022-10-16T14:31:29;1.77;;;1.48;;
26082;SDS011;13848;49.018;12.078;2022-10-16T14:33:56;2.65;;;2.03;;
26082;SDS011;13848;49.018;12.078;2022-10-16T14:36:24;2.47;;;1.70;;
26082;SDS011;13848;49.018;12.078;2022-10-16T14:38:55;2.30;;;1.80;;
26082;SDS011;13848;49.018;12.078;2022-10-16T14:41:26;2.83;;;1.55;;
26082;SDS011;13848;49.018;12.078;2022-10-16T14:43:54;4.88;;;1.90;;
26082;SDS011;13848;49.018;12.078;2022-10-16T14:46:22;2.08;;;1.60;;
26082;SDS011;13848;49.018;12.078;2022-10-16T14:48:58;5.47;;;1.63;;
26082;SDS011;13848;49.018;12.078;2022-10-16T14:51:29;1.80;;;1.40;;